Strona główna
METAR-TAF:

METAR-TAF

Lotnisko :

Port lotniczy Torsby

Torsby, Szwecja

Szerokość geograficzna: 60-09-17N, Długość geograficzna: 12-59-40E, wysokość: 120 m

Aktualna obserwacja pogody

Raport powstał 34 minut temu, godzina 02:20 UTC
Wiatr 1 kt z kierunków zmiennych
Temperatura -1°C
Wilgotność 100%
Ciśnienie 1024 hPa
Widzialność: 5000 m
zamglenie

METAR: ESST 060220Z AUTO VRB01KT 5000 BR NCD M01/M01 Q1024

czas: 04:54 (02:54 UTC)


TAF: brakujący

Obserwacja i prognoza pogody dla ponad 4000 lotnisk (raport METAR i TAF).

Dostępne stacje oznaczono żółtymi i czerwonymi punktami na mapie.

Najedź kursorem aby zobaczyć nazwę stacji.

Kliknij aby zobaczyć obserwacje i prognozy pogody.

Aby zmienić mapę: kliknij na zielony przycisk z czarnym krzyżykiem, aby powiększyć; na zielony przycisk z myślnikiem, aby pomniejszyć; na zielone strzałki, aby przejść do map sąsiednich.


METAR-TAF: